Time;durP1;ratioP1;P1;durP2;ratioP2;P2;SDS_P1;SDS_P2;PMS_P1;PMS_P2;Temp;Humidity;BMP_temperature;BMP_pressure;BME280_temperature;BME280_humidity;BME280_pressure;Samples;Min_cycle;Max_cycle;Signal;HPM_P1;HPM_P2
2023/06/05 00:01:27;;;;;;;6.93;4.80;;;12.10;99.90;;;;;;5012096;28;20507;-73
2023/06/05 00:03:53;;;;;;;7.43;4.93;;;12.00;99.90;;;;;;5010861;28;20046;-74
2023/06/05 00:06:19;;;;;;;6.65;4.38;;;12.00;99.90;;;;;;5011884;28;20038;-73
2023/06/05 00:08:44;;;;;;;9.90;4.80;;;12.00;99.90;;;;;;5011786;28;20383;-73
2023/06/05 00:11:10;;;;;;;9.35;5.10;;;11.90;99.90;;;;;;5010952;28;20045;-74
2023/06/05 00:13:35;;;;;;;6.85;4.60;;;11.90;99.90;;;;;;5011957;28;20045;-73
2023/06/05 00:16:02;;;;;;;9.35;4.90;;;11.90;99.90;;;;;;5010750;28;20034;-73
2023/06/05 00:18:29;;;;;;;8.02;4.70;;;11.90;99.90;;;;;;5010685;28;20516;-73
2023/06/05 00:20:55;;;;;;;9.25;4.45;;;11.80;99.90;;;;;;5011703;28;20148;-73
2023/06/05 00:23:21;;;;;;;8.13;5.57;;;11.90;99.90;;;;;;5004175;28;20521;-74
2023/06/05 00:25:46;;;;;;;7.90;4.25;;;11.90;99.90;;;;;;5011787;28;20115;-74
2023/06/05 00:28:12;;;;;;;7.80;4.80;;;11.90;99.90;;;;;;5011509;28;20390;-74
2023/06/05 00:30:38;;;;;;;7.38;4.70;;;11.90;99.90;;;;;;5012027;28;20425;-73
2023/06/05 00:33:04;;;;;;;11.20;4.72;;;11.90;99.90;;;;;;5015754;28;20119;-73
2023/06/05 00:35:30;;;;;;;8.38;5.22;;;11.90;99.90;;;;;;5014504;28;20429;-73
2023/06/05 00:37:56;;;;;;;7.45;4.18;;;11.90;99.90;;;;;;5015833;28;20068;-74
2023/06/05 00:40:21;;;;;;;7.70;4.20;;;11.90;99.90;;;;;;5015552;28;20066;-73
2023/06/05 00:42:47;;;;;;;7.97;4.35;;;11.90;99.90;;;;;;5015562;28;20109;-73
2023/06/05 00:45:13;;;;;;;4.72;3.70;;;11.90;99.90;;;;;;5014415;28;20077;-73
2023/06/05 00:47:39;;;;;;;8.48;4.10;;;11.90;99.90;;;;;;5015484;28;20034;-74
2023/06/05 00:50:07;;;;;;;7.13;4.35;;;11.90;99.90;;;;;;5013999;28;20065;-73
2023/06/05 00:52:33;;;;;;;11.57;4.07;;;11.90;99.90;;;;;;5015124;28;20092;-73
2023/06/05 00:55:00;;;;;;;10.05;4.53;;;11.90;99.90;;;;;;4997811;28;20088;-73
2023/06/05 00:57:28;;;;;;;7.50;4.22;;;11.90;99.90;;;;;;5014037;28;20093;-73
2023/06/05 00:59:54;;;;;;;8.32;4.80;;;11.90;99.90;;;;;;5015181;28;20450;-73
2023/06/05 01:02:20;;;;;;;7.32;4.20;;;11.90;99.90;;;;;;5014101;28;20088;-73
2023/06/05 01:04:46;;;;;;;8.00;5.40;;;11.90;99.90;;;;;;5014095;28;20041;-73
2023/06/05 01:07:14;;;;;;;8.88;4.25;;;11.90;99.90;;;;;;5014001;28;20038;-73
2023/06/05 01:09:40;;;;;;;8.65;4.30;;;11.80;99.90;;;;;;5015162;28;20053;-74
2023/06/05 01:12:23;;;;;;;7.57;4.68;;;11.90;99.90;;;;;;5015203;28;20073;-73
2023/06/05 01:14:49;;;;;;;10.25;5.15;;;11.90;99.90;;;;;;5013647;28;20058;-73
2023/06/05 01:17:18;;;;;;;8.70;4.53;;;11.80;99.90;;;;;;5014828;28;20445;-73
2023/06/05 01:19:45;;;;;;;9.15;4.95;;;11.90;99.90;;;;;;5015036;28;20148;-73
2023/06/05 01:22:12;;;;;;;6.75;4.55;;;11.80;99.90;;;;;;5014691;28;20038;-73
2023/06/05 01:24:40;;;;;;;7.68;3.97;;;11.80;99.90;;;;;;5014980;28;20057;-73
2023/06/05 01:27:29;;;;;;;6.70;4.18;;;11.80;99.90;;;;;;5014771;28;20042;-74
2023/06/05 01:30:07;;;;;;;8.30;4.38;;;11.90;99.90;;;;;;5013402;28;20152;-73
2023/06/05 01:32:57;;;;;;;7.18;4.00;;;11.90;99.90;;;;;;5014822;28;20168;-74
2023/06/05 01:35:27;;;;;;;5.90;3.90;;;11.90;99.90;;;;;;5014690;28;20045;-73
2023/06/05 01:37:54;;;;;;;7.47;3.95;;;11.80;99.90;;;;;;5013509;28;20042;-73
2023/06/05 01:40:23;;;;;;;6.22;4.45;;;11.90;99.90;;;;;;5013139;28;20046;-73
2023/06/05 01:42:51;;;;;;;6.57;4.05;;;11.90;99.90;;;;;;5012857;28;20076;-73
2023/06/05 01:45:18;;;;;;;7.55;4.03;;;12.00;99.90;;;;;;5013277;28;20038;-73
2023/06/05 01:47:48;;;;;;;6.57;4.32;;;12.00;99.90;;;;;;5014453;28;20157;-73
2023/06/05 01:50:14;;;;;;;8.43;4.10;;;11.90;99.90;;;;;;5014132;28;20041;-73
2023/06/05 01:52:44;;;;;;;5.50;3.88;;;11.90;99.90;;;;;;5014510;28;20053;-73
2023/06/05 01:55:16;;;;;;;7.03;4.28;;;12.00;99.90;;;;;;5014471;28;20112;-73
2023/06/05 01:57:42;;;;;;;5.65;3.17;;;12.00;99.90;;;;;;5014182;28;20382;-73
2023/06/05 02:00:12;;;;;;;5.63;3.05;;;11.90;99.90;;;;;;5012783;28;20048;-73
2023/06/05 02:02:41;;;;;;;7.78;3.88;;;11.90;99.90;;;;;;5014222;28;20037;-73
2023/06/05 02:05:08;;;;;;;8.10;3.72;;;11.90;99.90;;;;;;5012806;28;20124;-73
2023/06/05 02:07:37;;;;;;;9.63;4.18;;;12.00;99.90;;;;;;5012771;28;20121;-73
2023/06/05 02:10:05;;;;;;;9.52;3.90;;;11.90;99.90;;;;;;5013865;28;20030;-73
2023/06/05 02:12:32;;;;;;;6.82;3.47;;;11.90;99.90;;;;;;5014144;28;20073;-73
2023/06/05 02:14:59;;;;;;;5.43;3.00;;;11.90;99.90;;;;;;5013900;28;20054;-73
2023/06/05 02:17:24;;;;;;;5.50;3.40;;;12.00;99.90;;;;;;5013741;28;20073;-73
2023/06/05 02:19:51;;;;;;;7.28;3.83;;;11.90;99.90;;;;;;5012568;28;20541;-73
2023/06/05 02:22:16;;;;;;;5.30;3.47;;;12.00;99.90;;;;;;5012810;28;20102;-73
2023/06/05 02:24:42;;;;;;;6.55;3.95;;;12.00;99.90;;;;;;5012534;28;20501;-73
2023/06/05 02:27:10;;;;;;;6.60;3.65;;;11.90;99.90;;;;;;5013636;28;20049;-74
2023/06/05 02:29:38;;;;;;;5.97;3.75;;;12.00;99.90;;;;;;5013608;28;20437;-73
2023/06/05 02:32:06;;;;;;;7.60;4.38;;;11.90;99.90;;;;;;5013569;28;20033;-73
2023/06/05 02:34:32;;;;;;;6.22;3.53;;;11.90;99.90;;;;;;5013710;28;20048;-73
2023/06/05 02:36:58;;;;;;;5.40;3.50;;;11.90;99.90;;;;;;5013532;28;20045;-73
2023/06/05 02:39:24;;;;;;;6.03;4.05;;;11.90;99.90;;;;;;5012222;28;20037;-73
2023/06/05 02:41:49;;;;;;;5.30;3.35;;;11.90;99.90;;;;;;5013427;28;20125;-73
2023/06/05 02:44:15;;;;;;;5.60;3.40;;;11.90;99.90;;;;;;5013472;28;20117;-73
2023/06/05 02:46:40;;;;;;;7.80;4.25;;;12.00;99.90;;;;;;5012140;28;20034;-73
2023/06/05 02:49:06;;;;;;;4.50;3.72;;;12.00;99.90;;;;;;5013334;28;20116;-73
2023/06/05 02:51:32;;;;;;;9.02;3.78;;;12.00;99.90;;;;;;5011944;28;20417;-73
2023/06/05 02:53:57;;;;;;;7.57;3.95;;;12.00;99.90;;;;;;5012406;28;20052;-73
2023/06/05 02:56:25;;;;;;;5.88;3.50;;;12.00;99.90;;;;;;5013137;28;20524;-73
2023/06/05 02:58:51;;;;;;;6.43;3.72;;;12.00;99.90;;;;;;5011728;28;20497;-73
2023/06/05 03:01:16;;;;;;;7.53;3.63;;;12.00;99.90;;;;;;5012987;28;20045;-73
2023/06/05 03:03:42;;;;;;;6.03;3.13;;;12.00;99.90;;;;;;5011956;28;20104;-73
2023/06/05 03:06:07;;;;;;;4.60;3.20;;;12.00;99.90;;;;;;5013049;28;20514;-73
2023/06/05 03:08:35;;;;;;;4.90;3.35;;;12.00;99.90;;;;;;5012945;28;20497;-73
2023/06/05 03:11:01;;;;;;;5.05;3.35;;;12.00;99.90;;;;;;5011578;28;20125;-73
2023/06/05 03:13:27;;;;;;;6.55;3.38;;;12.00;99.90;;;;;;5012816;28;20042;-73
2023/06/05 03:15:56;;;;;;;5.18;3.42;;;12.00;99.90;;;;;;5011501;28;20053;-73
2023/06/05 03:18:23;;;;;;;4.93;3.33;;;11.90;99.90;;;;;;5011585;28;20045;-73
2023/06/05 03:20:50;;;;;;;4.28;2.90;;;11.90;99.90;;;;;;5012608;28;20038;-73
2023/06/05 03:23:16;;;;;;;5.13;3.22;;;11.90;99.90;;;;;;4995044;28;20042;-73
2023/06/05 03:25:42;;;;;;;6.10;3.08;;;11.90;99.90;;;;;;5012746;28;20047;-73
2023/06/05 03:28:07;;;;;;;3.90;2.97;;;11.90;99.90;;;;;;5011173;28;20046;-73
2023/06/05 03:30:33;;;;;;;5.18;3.67;;;11.80;99.90;;;;;;5011128;28;20041;-73
2023/06/05 03:32:59;;;;;;;5.53;3.35;;;11.90;99.90;;;;;;5012580;28;20049;-73
2023/06/05 03:35:24;;;;;;;5.80;2.95;;;11.80;99.90;;;;;;5012705;28;20076;-73
2023/06/05 03:37:50;;;;;;;6.95;4.55;;;11.80;99.90;;;;;;5012418;28;20196;-73
2023/06/05 03:40:15;;;;;;;9.93;6.07;;;11.70;99.90;;;;;;5012233;28;20107;-73
2023/06/05 03:42:41;;;;;;;9.00;6.00;;;11.70;99.90;;;;;;5011087;28;20034;-73
2023/06/05 03:45:08;;;;;;;11.27;6.38;;;11.70;99.90;;;;;;5011297;28;20064;-73
2023/06/05 03:47:34;;;;;;;8.10;5.95;;;11.70;99.90;;;;;;5011167;28;20041;-73
2023/06/05 03:50:00;;;;;;;11.05;7.03;;;11.70;99.90;;;;;;5012204;28;20034;-73
2023/06/05 03:52:26;;;;;;;7.95;6.43;;;11.70;99.90;;;;;;5011136;28;20437;-73
2023/06/05 03:54:53;;;;;;;12.93;7.55;;;11.70;99.90;;;;;;5010821;28;20049;-73
2023/06/05 03:57:20;;;;;;;8.95;7.53;;;11.80;99.90;;;;;;5010942;28;20038;-73
2023/06/05 03:59:46;;;;;;;11.60;8.05;;;11.80;99.90;;;;;;5012187;28;20053;-73
2023/06/05 04:02:13;;;;;;;10.43;8.38;;;11.80;99.90;;;;;;5012149;28;20038;-73
2023/06/05 04:04:38;;;;;;;13.13;8.98;;;11.80;99.90;;;;;;5012065;28;20085;-73
2023/06/05 04:07:05;;;;;;;14.32;8.65;;;11.80;99.90;;;;;;5012043;28;20077;-73
2023/06/05 04:09:31;;;;;;;10.70;8.00;;;11.90;99.90;;;;;;5011960;28;20037;-73
2023/06/05 04:11:56;;;;;;;12.88;9.65;;;11.90;99.90;;;;;;5011906;28;20125;-73
2023/06/05 04:14:22;;;;;;;11.60;8.30;;;11.90;99.90;;;;;;5012100;28;20125;-73
2023/06/05 04:16:48;;;;;;;11.05;8.38;;;12.00;99.90;;;;;;5011866;28;20457;-73
2023/06/05 04:19:13;;;;;;;11.48;8.60;;;11.90;99.90;;;;;;5010581;28;20037;-73
2023/06/05 04:21:40;;;;;;;10.30;7.35;;;11.90;99.90;;;;;;5011868;28;20126;-73
2023/06/05 04:24:08;;;;;;;11.52;7.47;;;12.00;99.90;;;;;;5011826;28;20054;-73
2023/06/05 04:26:35;;;;;;;9.95;6.68;;;12.00;99.90;;;;;;5010455;28;20565;-73
2023/06/05 04:29:13;;;;;;;8.73;5.32;;;12.10;99.90;;;;;;5010466;28;20038;-73
2023/06/05 04:31:43;;;;;;;9.90;5.68;;;12.10;99.90;;;;;;5011895;28;20077;-73
2023/06/05 04:34:08;;;;;;;7.22;4.97;;;12.20;99.90;;;;;;5010526;28;20097;-73
2023/06/05 04:36:34;;;;;;;10.77;5.07;;;12.20;99.90;;;;;;5011741;28;20502;-73
2023/06/05 04:39:17;;;;;;;6.57;4.68;;;12.30;99.90;;;;;;5011530;28;20422;-73
2023/06/05 04:41:46;;;;;;;7.82;4.75;;;12.30;99.90;;;;;;5011651;28;20038;-73
2023/06/05 04:44:13;;;;;;;5.97;4.35;;;12.30;99.90;;;;;;5010356;28;20095;-73
2023/06/05 04:46:39;;;;;;;6.40;3.92;;;12.50;99.90;;;;;;5011603;28;20041;-73
2023/06/05 04:49:10;;;;;;;6.05;4.10;;;12.60;99.90;;;;;;5010279;28;20038;-73
2023/06/05 04:51:36;;;;;;;4.82;3.42;;;12.80;99.90;;;;;;5010264;28;20054;-73
2023/06/05 04:54:03;;;;;;;8.68;4.63;;;12.90;99.90;;;;;;5010232;28;20050;-73
2023/06/05 04:56:29;;;;;;;5.75;3.00;;;13.10;99.90;;;;;;5011686;28;20215;-73
2023/06/05 04:58:54;;;;;;;7.47;3.97;;;13.20;99.90;;;;;;5010181;28;20598;-73
2023/06/05 05:01:20;;;;;;;6.95;3.08;;;13.40;99.90;;;;;;5011456;28;20127;-73
2023/06/05 05:03:46;;;;;;;3.80;2.90;;;13.50;99.90;;;;;;5010527;28;20128;-73
2023/06/05 05:06:16;;;;;;;7.45;3.70;;;13.60;99.90;;;;;;5011298;28;20049;-73
2023/06/05 05:08:47;;;;;;;6.55;3.42;;;13.80;99.90;;;;;;5011276;28;20525;-73
2023/06/05 05:11:13;;;;;;;4.95;3.13;;;14.00;99.90;;;;;;5010424;28;20049;-73
2023/06/05 05:13:39;;;;;;;4.30;2.70;;;14.20;99.90;;;;;;4993828;28;20395;-74
2023/06/05 05:16:04;;;;;;;4.75;2.80;;;14.20;99.90;;;;;;5011333;28;20450;-74
2023/06/05 05:18:31;;;;;;;4.88;2.53;;;14.50;99.90;;;;;;4996718;28;20108;-73
2023/06/05 05:20:56;;;;;;;6.53;2.80;;;14.60;99.90;;;;;;5013467;28;20034;-72
2023/06/05 05:23:22;;;;;;;4.50;2.80;;;14.80;99.90;;;;;;5013669;28;20041;-72
2023/06/05 05:25:48;;;;;;;4.55;2.60;;;15.00;99.90;;;;;;5013657;28;20460;-72
2023/06/05 05:28:14;;;;;;;3.92;2.15;;;15.20;99.90;;;;;;5014786;28;20038;-72
2023/06/05 05:30:39;;;;;;;3.22;2.10;;;15.20;99.90;;;;;;5013370;28;20042;-73
2023/06/05 05:33:05;;;;;;;3.28;2.35;;;15.30;99.90;;;;;;5014657;28;20044;-72
2023/06/05 05:35:31;;;;;;;3.83;2.58;;;15.60;99.90;;;;;;5013544;28;20084;-72
2023/06/05 05:37:56;;;;;;;4.15;2.53;;;15.90;99.90;;;;;;5013495;28;20034;-72
2023/06/05 05:40:22;;;;;;;4.55;2.45;;;16.00;99.90;;;;;;5014466;28;20081;-72
2023/06/05 05:42:48;;;;;;;3.63;2.83;;;16.20;99.90;;;;;;5013134;28;20450;-72
2023/06/05 05:45:13;;;;;;;2.97;2.17;;;16.40;99.90;;;;;;5013301;28;20033;-72
2023/06/05 05:47:40;;;;;;;3.83;2.30;;;16.30;99.90;;;;;;5013168;28;20490;-72
2023/06/05 05:50:06;;;;;;;3.25;1.85;;;16.30;99.90;;;;;;5014214;28;20048;-72
2023/06/05 05:52:32;;;;;;;2.83;2.00;;;16.40;99.90;;;;;;5012716;28;20046;-71
2023/06/05 05:54:59;;;;;;;3.35;1.88;;;16.20;99.90;;;;;;5014419;28;20121;-71
2023/06/05 05:57:25;;;;;;;3.85;2.10;;;16.00;99.90;;;;;;5013656;28;20567;-71
2023/06/05 05:59:51;;;;;;;5.35;2.65;;;16.10;99.90;;;;;;5014057;28;20038;-70
2023/06/05 06:02:17;;;;;;;4.03;2.55;;;15.90;99.90;;;;;;5014401;28;20033;-71
2023/06/05 06:04:43;;;;;;;6.18;2.83;;;15.70;99.90;;;;;;5014388;28;20125;-72
2023/06/05 06:07:09;;;;;;;6.50;2.67;;;15.60;99.90;;;;;;5013923;28;20505;-71
2023/06/05 06:09:36;;;;;;;3.83;2.53;;;15.70;99.90;;;;;;5014046;28;20096;-71
2023/06/05 06:12:05;;;;;;;3.85;2.15;;;15.70;99.90;;;;;;5014121;28;20042;-71
2023/06/05 06:14:32;;;;;;;4.40;3.03;;;15.90;99.90;;;;;;5013890;28;20038;-71
2023/06/05 06:16:58;;;;;;;3.67;2.20;;;15.60;99.90;;;;;;5013726;28;20040;-71
2023/06/05 06:19:25;;;;;;;4.55;1.95;;;15.60;99.90;;;;;;5013930;28;20105;-71
2023/06/05 06:21:53;;;;;;;2.83;1.90;;;15.60;99.90;;;;;;5012433;28;20433;-71
2023/06/05 06:24:22;;;;;;;6.53;2.20;;;15.60;99.90;;;;;;5012541;28;20053;-71
2023/06/05 06:26:48;;;;;;;2.55;1.80;;;15.40;99.90;;;;;;5013676;28;20038;-72
2023/06/05 06:29:20;;;;;;;3.22;2.55;;;15.80;99.90;;;;;;5012462;28;20030;-71
2023/06/05 06:31:46;;;;;;;3.33;2.00;;;16.10;99.90;;;;;;5013644;28;20494;-72
2023/06/05 06:34:12;;;;;;;3.38;2.15;;;16.30;99.90;;;;;;5013717;28;20045;-72
2023/06/05 06:36:40;;;;;;;2.08;1.65;;;16.70;99.90;;;;;;5013857;28;20097;-71
2023/06/05 06:39:12;;;;;;;4.40;1.80;;;16.20;99.90;;;;;;5012204;28;20048;-71
2023/06/05 06:41:38;;;;;;;5.10;1.92;;;16.10;99.90;;;;;;5012331;28;20444;-71
2023/06/05 06:44:05;;;;;;;3.85;1.95;;;16.50;99.90;;;;;;5013321;28;20038;-71
2023/06/05 06:46:31;;;;;;;2.88;1.65;;;17.00;99.90;;;;;;5013639;28;20042;-72
2023/06/05 06:48:57;;;;;;;2.17;1.58;;;17.40;99.30;;;;;;5011985;28;20046;-72
2023/06/05 06:51:22;;;;;;;4.60;1.60;;;17.10;99.20;;;;;;5013223;28;20116;-72
2023/06/05 06:53:49;;;;;;;2.65;1.85;;;17.00;98.90;;;;;;5011935;28;20057;-73
2023/06/05 06:56:15;;;;;;;3.00;1.60;;;16.50;99.60;;;;;;5013172;28;20053;-72
2023/06/05 06:58:42;;;;;;;3.45;2.33;;;16.70;99.90;;;;;;5013026;28;20108;-72
2023/06/05 07:01:08;;;;;;;4.85;1.75;;;16.50;99.90;;;;;;5013067;28;20080;-73
2023/06/05 07:03:35;;;;;;;2.88;1.45;;;16.10;99.90;;;;;;5012095;28;20046;-72
2023/06/05 07:06:01;;;;;;;4.15;1.67;;;16.00;99.90;;;;;;5013036;28;20053;-72
2023/06/05 07:08:26;;;;;;;3.30;1.92;;;16.00;99.90;;;;;;5011726;28;20033;-72
2023/06/05 07:10:55;;;;;;;5.32;2.08;;;15.90;99.90;;;;;;5011672;28;20046;-72
2023/06/05 07:13:21;;;;;;;4.18;1.88;;;15.70;99.90;;;;;;5012754;28;20059;-72
2023/06/05 07:15:47;;;;;;;5.15;1.55;;;16.30;99.90;;;;;;5012864;28;20034;-72
2023/06/05 07:18:12;;;;;;;2.53;1.67;;;16.60;99.90;;;;;;5012710;28;20038;-72
2023/06/05 07:20:38;;;;;;;4.45;2.00;;;17.10;99.80;;;;;;5011280;28;20416;-72
2023/06/05 07:23:05;;;;;;;3.08;2.17;;;17.50;98.90;;;;;;5012783;28;20042;-72
2023/06/05 07:25:31;;;;;;;3.60;1.98;;;18.00;97.60;;;;;;5012696;28;20092;-72
2023/06/05 07:27:59;;;;;;;3.08;2.00;;;18.20;96.90;;;;;;5012502;28;20042;-72
2023/06/05 07:30:28;;;;;;;3.70;1.63;;;18.50;96.00;;;;;;5012622;28;20049;-73
2023/06/05 07:32:54;;;;;;;5.13;2.08;;;18.70;95.20;;;;;;4995237;28;20597;-72
2023/06/05 07:35:20;;;;;;;3.22;2.22;;;18.90;94.00;;;;;;5012714;28;20457;-73
2023/06/05 07:37:46;;;;;;;6.65;2.33;;;19.00;92.80;;;;;;5011449;28;20042;-72
2023/06/05 07:40:12;;;;;;;5.40;2.17;;;19.00;91.90;;;;;;5011973;28;20516;-73
2023/06/05 07:42:37;;;;;;;2.85;2.00;;;19.00;92.60;;;;;;5011142;28;20034;-72
2023/06/05 07:45:03;;;;;;;3.58;1.98;;;19.20;92.20;;;;;;5011117;28;20045;-73
2023/06/05 07:47:29;;;;;;;4.07;2.13;;;19.10;93.20;;;;;;5012481;28;20038;-73
2023/06/05 07:50:00;;;;;;;4.10;1.67;;;19.70;92.60;;;;;;5011124;28;20034;-73
2023/06/05 07:52:26;;;;;;;3.30;1.95;;;19.70;90.60;;;;;;5011054;28;20076;-73
2023/06/05 07:54:52;;;;;;;2.53;1.85;;;19.80;90.00;;;;;;5010914;28;20042;-71
2023/06/05 07:57:18;;;;;;;2.78;1.80;;;20.00;90.20;;;;;;5012341;28;20040;-71
2023/06/05 07:59:43;;;;;;;2.92;2.17;;;20.10;89.10;;;;;;5010867;28;20516;-71
2023/06/05 08:02:09;;;;;;;2.88;2.13;;;19.80;89.50;;;;;;5012350;28;20116;-71
2023/06/05 08:04:35;;;;;;;4.97;2.00;;;19.70;88.60;;;;;;5012273;28;20034;-71
2023/06/05 08:07:01;;;;;;;2.40;1.90;;;20.00;87.50;;;;;;5011078;28;20037;-71
2023/06/05 08:09:26;;;;;;;3.13;1.70;;;20.10;86.90;;;;;;5011042;28;20128;-71
2023/06/05 08:11:52;;;;;;;3.85;1.73;;;20.20;85.40;;;;;;5010862;28;20552;-71
2023/06/05 08:14:18;;;;;;;3.92;2.08;;;20.30;86.00;;;;;;5012148;28;20069;-71
2023/06/05 08:16:43;;;;;;;5.57;1.70;;;20.50;85.10;;;;;;5011851;28;20390;-72
2023/06/05 08:19:09;;;;;;;3.97;1.60;;;20.50;84.20;;;;;;5007074;28;20120;-71
2023/06/05 08:21:36;;;;;;;3.55;1.80;;;20.80;83.50;;;;;;5010304;28;20038;-71
2023/06/05 08:24:02;;;;;;;3.25;2.00;;;20.70;80.50;;;;;;4994518;28;20417;-71
2023/06/05 08:26:28;;;;;;;3.15;2.20;;;20.50;78.40;;;;;;5010596;28;20096;-71
2023/06/05 08:28:53;;;;;;;8.02;2.15;;;20.70;78.50;;;;;;5010945;28;20037;-71
2023/06/05 08:31:19;;;;;;;3.60;1.90;;;20.70;81.90;;;;;;4994421;28;20129;-71
2023/06/05 08:33:45;;;;;;;4.50;2.42;;;20.80;79.60;;;;;;5011699;28;20096;-71
2023/06/05 08:36:10;;;;;;;3.10;2.40;;;20.50;80.20;;;;;;5011708;28;20038;-71
2023/06/05 08:38:36;;;;;;;2.53;1.83;;;20.40;79.10;;;;;;5010217;28;20110;-71
2023/06/05 08:41:13;;;;;;;3.03;2.00;;;20.50;78.20;;;;;;5011436;28;20046;-71
2023/06/05 08:43:40;;;;;;;5.03;2.53;;;20.50;77.90;;;;;;5010672;28;20057;-71
2023/06/05 08:46:08;;;;;;;3.97;2.22;;;20.20;77.80;;;;;;5010322;28;20038;-72
2023/06/05 08:48:40;;;;;;;3.97;2.55;;;20.50;78.60;;;;;;5011531;28;20393;-72
2023/06/05 08:51:10;;;;;;;3.95;2.53;;;20.60;78.20;;;;;;5010204;28;20041;-72
2023/06/05 08:53:38;;;;;;;4.13;2.75;;;20.30;78.20;;;;;;5014893;28;20041;-72
2023/06/05 08:56:05;;;;;;;3.95;2.80;;;20.70;79.10;;;;;;5014212;28;20034;-72
2023/06/05 08:58:31;;;;;;;4.40;2.90;;;20.70;77.50;;;;;;5015209;28;20042;-72
2023/06/05 09:00:58;;;;;;;4.80;2.70;;;20.60;77.10;;;;;;5015279;28;20037;-72
2023/06/05 09:03:23;;;;;;;4.15;2.58;;;20.80;76.80;;;;;;5015274;28;20136;-72
2023/06/05 09:05:51;;;;;;;4.45;2.92;;;20.80;77.20;;;;;;5015170;28;20077;-72
2023/06/05 09:08:17;;;;;;;3.05;2.45;;;20.90;77.40;;;;;;5013727;28;20057;-72
2023/06/05 09:10:43;;;;;;;3.67;2.60;;;21.00;75.10;;;;;;5010324;28;20113;-72
2023/06/05 09:13:09;;;;;;;3.45;2.63;;;20.80;74.90;;;;;;5015012;28;20045;-72
2023/06/05 09:15:36;;;;;;;3.13;2.28;;;21.20;76.90;;;;;;5015036;28;20038;-72
2023/06/05 09:18:14;;;;;;;3.78;2.05;;;21.30;74.40;;;;;;5009024;28;20118;-72
2023/06/05 09:20:45;;;;;;;4.85;2.70;;;20.90;74.30;;;;;;4996580;28;20052;-72
2023/06/05 09:23:29;;;;;;;3.25;2.22;;;21.10;76.10;;;;;;5015085;28;20468;-72
2023/06/05 09:25:58;;;;;;;2.60;2.22;;;21.00;72.60;;;;;;5014705;28;20075;-72
2023/06/05 09:28:24;;;;;;;3.85;2.17;;;21.00;73.10;;;;;;5013536;28;20148;-72
2023/06/05 09:30:57;;;;;;;3.50;2.47;;;21.00;74.60;;;;;;5014593;28;20160;-72
2023/06/05 09:33:23;;;;;;;3.50;2.00;;;21.10;75.10;;;;;;5014813;28;20146;-72
2023/06/05 09:36:12;;;;;;;2.45;1.98;;;21.20;74.00;;;;;;5014796;28;20052;-72
2023/06/05 09:38:40;;;;;;;3.08;2.03;;;21.30;73.50;;;;;;5014602;28;20071;-72
2023/06/05 09:41:07;;;;;;;4.07;2.60;;;21.20;72.90;;;;;;5013227;28;20044;-72
2023/06/05 09:43:33;;;;;;;5.05;2.65;;;20.60;73.30;;;;;;5013273;28;20091;-72
2023/06/05 09:46:05;;;;;;;3.13;2.17;;;20.80;73.00;;;;;;5014540;28;20445;-72
2023/06/05 09:48:32;;;;;;;3.92;2.72;;;20.80;75.00;;;;;;5013318;28;20607;-72
2023/06/05 09:51:10;;;;;;;5.85;3.15;;;20.90;75.90;;;;;;5013065;28;20053;-72
2023/06/05 09:53:40;;;;;;;3.78;2.40;;;20.80;74.10;;;;;;5014277;28;20489;-72
2023/06/05 09:56:09;;;;;;;4.55;2.80;;;20.50;73.80;;;;;;5014367;28;20037;-72
2023/06/05 09:58:37;;;;;;;4.60;3.03;;;20.80;74.70;;;;;;5012289;28;20034;-72
2023/06/05 10:01:06;;;;;;;4.50;2.95;;;20.80;75.70;;;;;;5012550;28;20041;-72
2023/06/05 10:03:36;;;;;;;4.15;2.80;;;20.50;75.30;;;;;;5011221;28;20038;-72
2023/06/05 10:06:04;;;;;;;4.38;3.05;;;20.30;75.20;;;;;;5011501;28;20038;-72
2023/06/05 10:08:30;;;;;;;3.28;2.67;;;20.60;76.10;;;;;;5012250;28;20052;-72
2023/06/05 10:10:56;;;;;;;2.88;2.38;;;20.70;75.30;;;;;;5005960;28;20042;-72
2023/06/05 10:13:22;;;;;;;6.38;3.08;;;20.50;75.30;;;;;;5012812;28;20061;-72
2023/06/05 10:15:52;;;;;;;5.10;3.35;;;20.60;75.50;;;;;;5014013;28;20525;-72
2023/06/05 10:18:17;;;;;;;5.38;3.88;;;20.60;75.50;;;;;;5012421;28;20076;-72
2023/06/05 10:20:46;;;;;;;3.70;3.10;;;20.20;75.50;;;;;;5013625;28;20093;-72
2023/06/05 10:23:14;;;;;;;5.03;3.00;;;20.20;77.50;;;;;;5007664;28;20046;-73
2023/06/05 10:25:41;;;;;;;4.65;3.30;;;20.10;77.00;;;;;;5012211;28;20115;-73
2023/06/05 10:28:06;;;;;;;4.38;2.85;;;20.00;76.60;;;;;;5012405;28;20045;-72
2023/06/05 10:30:44;;;;;;;3.97;3.42;;;20.20;77.00;;;;;;5013498;28;20038;-72
2023/06/05 10:33:42;;;;;;;4.50;3.15;;;19.80;78.60;;;;;;5012206;28;20033;-72
2023/06/05 10:36:28;;;;;;;3.97;2.63;;;19.80;79.20;;;;;;5013678;28;20065;-72
2023/06/05 10:38:54;;;;;;;4.47;2.95;;;20.00;77.80;;;;;;5013558;28;20042;-72
2023/06/05 10:41:22;;;;;;;3.92;2.47;;;19.60;77.90;;;;;;5012297;28;20034;-72
2023/06/05 10:43:48;;;;;;;4.80;2.90;;;20.00;79.40;;;;;;5012097;28;20048;-73
2023/06/05 10:46:35;;;;;;;4.93;2.75;;;20.00;77.40;;;;;;5013492;28;20045;-72
2023/06/05 10:49:19;;;;;;;6.15;3.15;;;19.80;77.80;;;;;;5011864;28;20045;-72
2023/06/05 10:51:53;;;;;;;4.88;3.13;;;19.90;78.70;;;;;;5013324;28;20124;-72
2023/06/05 10:54:22;;;;;;;6.22;3.15;;;19.90;78.20;;;;;;5011858;28;20734;-72
2023/06/05 10:57:02;;;;;;;3.70;2.67;;;19.90;80.20;;;;;;5013265;28;20438;-72
2023/06/05 10:59:36;;;;;;;5.45;3.13;;;19.90;79.50;;;;;;4995135;28;20553;-72
2023/06/05 11:02:14;;;;;;;4.65;2.40;;;19.90;81.80;;;;;;5013149;28;20038;-72
2023/06/05 11:04:43;;;;;;;4.65;2.63;;;20.00;83.60;;;;;;5013040;28;20049;-72
2023/06/05 11:07:20;;;;;;;4.60;2.97;;;19.80;81.50;;;;;;5010129;28;20053;-69
2023/06/05 11:10:20;;;;;;;5.47;2.90;;;19.90;80.90;;;;;;5009161;28;20045;-69
2023/06/05 11:12:45;;;;;;;4.97;2.60;;;20.10;80.60;;;;;;5007079;28;20034;-69
2023/06/05 11:15:34;;;;;;;5.05;2.40;;;20.20;79.40;;;;;;5012012;28;20042;-68
2023/06/05 11:18:35;;;;;;;5.03;2.67;;;20.30;79.10;;;;;;5011100;28;20034;-69
2023/06/05 11:21:01;;;;;;;4.78;2.85;;;20.00;80.20;;;;;;5012148;28;20042;-70
2023/06/05 11:23:28;;;;;;;5.30;2.47;;;20.30;81.30;;;;;;5012599;28;20042;-70
2023/06/05 11:25:58;;;;;;;4.28;1.92;;;20.10;79.20;;;;;;5012873;28;20042;-69
2023/06/05 11:28:40;;;;;;;4.13;2.33;;;20.20;80.40;;;;;;5012684;28;20042;-69
2023/06/05 11:31:06;;;;;;;3.53;2.08;;;20.30;79.50;;;;;;5012697;28;20501;-69
2023/06/05 11:33:32;;;;;;;4.82;2.50;;;20.40;78.00;;;;;;5012416;28;20091;-69
2023/06/05 11:36:07;;;;;;;4.60;2.20;;;20.20;77.10;;;;;;5011605;28;20038;-70
2023/06/05 11:38:33;;;;;;;2.78;2.10;;;20.10;77.60;;;;;;5012422;28;20117;-69
2023/06/05 11:40:59;;;;;;;5.05;2.80;;;20.20;78.60;;;;;;5012356;28;20473;-69
2023/06/05 11:43:25;;;;;;;3.08;2.22;;;20.10;78.30;;;;;;5009377;28;20061;-69
2023/06/05 11:45:52;;;;;;;4.07;2.53;;;20.30;82.90;;;;;;5003266;28;20053;-69
2023/06/05 11:48:18;;;;;;;4.70;2.60;;;20.20;82.30;;;;;;5011819;28;20041;-69
2023/06/05 11:50:58;;;;;;;3.85;2.30;;;20.10;82.60;;;;;;5011694;28;20441;-69
2023/06/05 11:53:25;;;;;;;4.35;2.42;;;20.20;81.40;;;;;;5012120;28;20080;-69
2023/06/05 11:58:35;;;;;;;4.40;2.63;;;20.10;81.70;;;;;;5012146;28;20052;-69
2023/06/05 12:01:14;;;;;;;3.80;2.28;;;20.30;81.70;;;;;;5012297;28;20045;-69
2023/06/05 12:03:41;;;;;;;5.75;2.75;;;20.20;82.00;;;;;;5011958;28;20045;-69
2023/06/05 12:06:07;;;;;;;4.53;2.67;;;20.20;81.40;;;;;;5009497;28;20038;-70
2023/06/05 12:08:34;;;;;;;4.93;2.97;;;20.10;83.10;;;;;;5010050;28;20061;-70
2023/06/05 12:11:02;;;;;;;3.95;2.63;;;19.90;83.90;;;;;;5009385;28;20038;-68
2023/06/05 12:13:47;;;;;;;4.65;2.38;;;19.90;84.00;;;;;;5007960;28;20061;-71
2023/06/05 12:16:13;;;;;;;3.13;2.28;;;19.90;83.30;;;;;;5010304;28;20087;-70
2023/06/05 12:18:38;;;;;;;4.25;2.58;;;20.00;83.30;;;;;;5010607;28;20121;-67
2023/06/05 12:21:06;;;;;;;3.42;2.22;;;19.90;84.30;;;;;;5010652;28;20046;-68
2023/06/05 12:23:32;;;;;;;5.43;2.78;;;19.90;83.40;;;;;;5010840;28;20077;-69
2023/06/05 12:26:03;;;;;;;4.70;2.38;;;20.00;88.00;;;;;;5011857;28;20631;-68
2023/06/05 12:28:30;;;;;;;3.92;2.67;;;20.00;87.50;;;;;;5014990;28;20057;-69
2023/06/05 12:30:56;;;;;;;4.35;2.42;;;19.90;85.60;;;;;;5015329;28;20042;-68
2023/06/05 12:33:26;;;;;;;3.88;2.92;;;19.80;86.40;;;;;;5014894;28;20042;-70
2023/06/05 12:36:07;;;;;;;7.22;2.25;;;19.60;86.30;;;;;;5014710;28;20040;-69
2023/06/05 12:38:41;;;;;;;5.07;2.80;;;19.80;86.90;;;;;;5013516;28;20049;-68
2023/06/05 12:41:07;;;;;;;3.20;2.50;;;19.60;86.60;;;;;;5010284;28;20083;-69
2023/06/05 12:43:33;;;;;;;3.85;2.55;;;19.60;87.40;;;;;;5015115;28;20472;-70
2023/06/05 12:45:59;;;;;;;4.20;2.55;;;19.80;88.10;;;;;;5013812;28;20085;-70
2023/06/05 12:48:25;;;;;;;3.15;2.60;;;19.60;88.20;;;;;;5014595;28;20045;-69
2023/06/05 12:50:51;;;;;;;4.40;2.75;;;19.70;88.00;;;;;;5013397;28;20464;-71
2023/06/05 12:53:17;;;;;;;3.45;2.45;;;19.70;89.00;;;;;;5013721;28;20052;-69